createdAt,value
2023-03-13T00:01:01.265Z,5.45
2023-03-13T00:03:28.691Z,5.80
2023-03-13T00:05:56.960Z,5.63
2023-03-13T00:08:24.563Z,5.32
2023-03-13T00:10:52.625Z,5.57
2023-03-13T00:13:19.356Z,5.78
2023-03-13T00:15:45.860Z,5.70
2023-03-13T00:18:12.408Z,5.63
2023-03-13T00:20:39.117Z,6.22
2023-03-13T00:23:05.933Z,6.00
2023-03-13T00:25:32.454Z,5.75
2023-03-13T00:27:59.090Z,5.15
2023-03-13T00:30:25.661Z,4.97
2023-03-13T00:32:52.234Z,5.90
2023-03-13T00:35:19.402Z,5.60
2023-03-13T00:37:45.972Z,5.05
2023-03-13T00:40:12.624Z,4.93
2023-03-13T00:42:39.268Z,5.07
2023-03-13T00:45:06.349Z,4.45
2023-03-13T00:47:32.887Z,4.60
2023-03-13T00:49:59.695Z,5.32
2023-03-13T00:52:28.157Z,4.28
2023-03-13T00:54:55.568Z,4.97
2023-03-13T00:57:22.214Z,5.10
2023-03-13T00:59:48.713Z,4.85
2023-03-13T01:02:15.305Z,5.10
2023-03-13T01:04:42.159Z,4.88
2023-03-13T01:07:08.668Z,5.45
2023-03-13T01:09:35.181Z,4.93
2023-03-13T01:12:01.965Z,4.85
2023-03-13T01:14:28.637Z,4.53
2023-03-13T01:16:55.205Z,4.80
2023-03-13T01:19:21.965Z,4.38
2023-03-13T01:21:48.471Z,4.60
2023-03-13T01:24:15.026Z,4.22
2023-03-13T01:26:41.860Z,4.68
2023-03-13T01:29:08.448Z,4.70
2023-03-13T01:31:35.802Z,5.00
2023-03-13T01:34:05.350Z,5.00
2023-03-13T01:36:32.977Z,5.40
2023-03-13T01:39:00.934Z,5.05
2023-03-13T01:41:29.514Z,6.55
2023-03-13T01:43:56.667Z,5.88
2023-03-13T01:46:28.363Z,6.13
2023-03-13T01:48:55.105Z,6.30
2023-03-13T01:51:27.497Z,5.55
2023-03-13T01:54:00.680Z,6.03
2023-03-13T01:56:34.642Z,4.75
2023-03-13T01:59:02.577Z,5.47
2023-03-13T02:04:05.917Z,5.72
2023-03-13T02:06:34.825Z,5.93
2023-03-13T02:09:07.787Z,6.18
2023-03-13T02:11:53.605Z,6.13
2023-03-13T02:14:23.483Z,5.97
2023-03-13T02:16:52.161Z,5.78
2023-03-13T02:19:28.389Z,6.03
2023-03-13T02:22:10.026Z,6.03
2023-03-13T02:24:45.835Z,5.72
2023-03-13T02:27:12.470Z,5.85
2023-03-13T02:29:39.013Z,5.53
2023-03-13T02:32:05.932Z,5.65
2023-03-13T02:34:35.449Z,6.15
2023-03-13T02:37:05.684Z,5.82
2023-03-13T02:39:33.441Z,6.70
2023-03-13T02:42:02.023Z,6.60
2023-03-13T02:44:28.562Z,6.20
2023-03-13T02:46:55.249Z,5.60
2023-03-13T02:49:30.971Z,5.72
2023-03-13T02:52:01.464Z,5.75
2023-03-13T02:54:33.471Z,5.88
2023-03-13T02:57:03.215Z,5.70
2023-03-13T02:59:30.264Z,6.40
2023-03-13T03:01:56.781Z,6.40
2023-03-13T03:04:25.790Z,6.20
2023-03-13T03:06:53.077Z,6.25
2023-03-13T03:09:20.564Z,6.45
2023-03-13T03:11:47.417Z,6.15
2023-03-13T03:14:14.530Z,6.20
2023-03-13T03:16:41.825Z,5.90
2023-03-13T03:19:09.386Z,6.55
2023-03-13T03:21:35.899Z,5.95
2023-03-13T03:24:02.770Z,6.05
2023-03-13T03:26:29.509Z,6.32
2023-03-13T03:28:56.509Z,5.68
2023-03-13T03:31:23.710Z,6.07
2023-03-13T03:33:50.421Z,6.05
2023-03-13T03:36:20.176Z,6.05
2023-03-13T03:38:47.096Z,6.00
2023-03-13T03:41:15.143Z,5.95
2023-03-13T03:43:41.951Z,5.82
2023-03-13T03:46:08.731Z,5.38
2023-03-13T03:48:35.956Z,5.85
2023-03-13T03:51:02.479Z,6.03
2023-03-13T03:53:29.077Z,5.95
2023-03-13T03:55:55.976Z,5.45
2023-03-13T03:58:22.566Z,5.68
2023-03-13T04:00:49.590Z,5.88
2023-03-13T04:03:17.076Z,5.65
2023-03-13T04:05:44.041Z,5.97
2023-03-13T04:08:10.648Z,5.95
2023-03-13T04:10:37.339Z,5.60
2023-03-13T04:13:03.950Z,6.20
2023-03-13T04:15:30.655Z,5.93
2023-03-13T04:17:57.253Z,6.10
2023-03-13T04:20:23.771Z,5.55
2023-03-13T04:22:50.513Z,5.53
2023-03-13T04:25:17.416Z,5.53
2023-03-13T04:27:44.209Z,5.25
2023-03-13T04:30:11.271Z,6.07
2023-03-13T04:32:37.908Z,5.30
2023-03-13T04:35:05.191Z,5.65
2023-03-13T04:37:31.747Z,5.53
2023-03-13T04:39:58.365Z,5.85
2023-03-13T04:42:25.030Z,5.95
2023-03-13T04:44:51.540Z,6.30
2023-03-13T04:47:18.148Z,5.75
2023-03-13T04:49:44.762Z,5.60
2023-03-13T04:52:11.404Z,5.63
2023-03-13T04:54:37.994Z,5.88
2023-03-13T04:57:04.726Z,5.53
2023-03-13T04:59:31.508Z,5.38
2023-03-13T05:01:58.155Z,5.40
2023-03-13T05:04:24.971Z,5.70
2023-03-13T05:06:51.604Z,6.05
2023-03-13T05:09:18.540Z,5.45
2023-03-13T05:11:45.070Z,5.65
2023-03-13T05:14:11.751Z,5.57
2023-03-13T05:16:39.273Z,5.57
2023-03-13T05:19:05.814Z,5.57
2023-03-13T05:21:32.384Z,5.70
2023-03-13T05:23:59.028Z,5.82
2023-03-13T05:26:25.699Z,5.68
2023-03-13T05:28:52.205Z,5.60
2023-03-13T05:31:18.880Z,6.10
2023-03-13T05:33:45.440Z,5.57
2023-03-13T05:36:11.970Z,5.30
2023-03-13T05:38:38.857Z,6.47
2023-03-13T05:41:05.375Z,5.50
2023-03-13T05:43:31.881Z,5.38
2023-03-13T05:45:58.752Z,5.63
2023-03-13T05:48:25.304Z,6.32
2023-03-13T05:50:51.795Z,7.10
2023-03-13T05:53:18.577Z,6.85
2023-03-13T05:55:45.128Z,6.13
2023-03-13T05:58:11.652Z,6.20
2023-03-13T06:00:38.298Z,6.05
2023-03-13T06:03:04.811Z,6.70
2023-03-13T06:05:31.350Z,6.00
2023-03-13T06:07:57.990Z,6.00
2023-03-13T06:10:24.501Z,6.07
2023-03-13T06:12:55.328Z,6.50
2023-03-13T06:15:22.965Z,6.50
2023-03-13T06:17:49.592Z,6.38
2023-03-13T06:20:16.300Z,6.53
2023-03-13T06:22:43.106Z,6.28
2023-03-13T06:25:10.458Z,7.22
2023-03-13T06:27:36.985Z,6.50
2023-03-13T06:30:04.654Z,7.00
2023-03-13T06:32:31.292Z,6.05
2023-03-13T06:34:57.965Z,5.97
2023-03-13T06:37:24.670Z,6.35
2023-03-13T06:39:51.159Z,6.32
2023-03-13T06:42:17.692Z,6.38
2023-03-13T06:44:44.949Z,6.15
2023-03-13T06:47:13.032Z,6.63
2023-03-13T06:49:40.876Z,7.07
2023-03-13T06:52:07.499Z,6.93
2023-03-13T06:54:34.019Z,6.65
2023-03-13T06:57:00.572Z,6.47
2023-03-13T06:59:27.541Z,6.78
2023-03-13T07:01:54.087Z,5.93
2023-03-13T07:04:20.790Z,6.15
2023-03-13T07:06:47.653Z,5.88
2023-03-13T07:09:14.170Z,5.35
2023-03-13T07:11:40.685Z,5.70
2023-03-13T07:14:16.559Z,5.97
2023-03-13T07:16:44.976Z,6.10
2023-03-13T07:19:11.721Z,5.22
2023-03-13T07:21:38.304Z,5.63
2023-03-13T07:24:05.205Z,5.82
2023-03-13T07:26:31.892Z,5.75
2023-03-13T07:28:58.552Z,6.28
2023-03-13T07:31:25.174Z,6.32
2023-03-13T07:33:54.453Z,6.18
2023-03-13T07:36:20.988Z,6.05
2023-03-13T07:38:48.988Z,6.05
2023-03-13T07:41:15.921Z,5.75
2023-03-13T07:43:42.623Z,5.85
2023-03-13T07:46:12.857Z,5.72
2023-03-13T07:48:42.295Z,5.47
2023-03-13T07:51:13.460Z,6.13
2023-03-13T07:53:40.033Z,5.70
2023-03-13T07:56:10.149Z,6.20
2023-03-13T07:58:38.800Z,6.35
2023-03-13T08:01:29.081Z,6.57
2023-03-13T08:03:58.722Z,6.60
2023-03-13T08:06:26.719Z,6.00
2023-03-13T08:08:56.857Z,5.85
2023-03-13T08:11:25.249Z,4.50
2023-03-13T08:13:56.229Z,3.95
2023-03-13T08:16:28.629Z,3.92
2023-03-13T08:18:57.316Z,3.28
2023-03-13T08:21:26.646Z,3.35
2023-03-13T08:23:58.344Z,3.33
2023-03-13T08:26:28.110Z,2.90
2023-03-13T08:29:06.851Z,3.20
2023-03-13T08:31:42.172Z,2.75
2023-03-13T08:34:08.825Z,3.00
2023-03-13T08:36:37.114Z,2.95
2023-03-13T08:39:15.350Z,2.40
2023-03-13T08:41:42.070Z,3.05
2023-03-13T08:44:11.758Z,2.65
2023-03-13T08:46:38.952Z,2.65
2023-03-13T08:49:07.622Z,2.80
2023-03-13T08:51:34.986Z,2.47
2023-03-13T08:54:03.238Z,2.47
2023-03-13T08:56:30.961Z,2.28
2023-03-13T08:59:00.006Z,2.83
2023-03-13T09:01:34.678Z,2.80
2023-03-13T09:04:04.541Z,3.08
2023-03-13T09:06:32.566Z,2.53
2023-03-13T09:08:59.339Z,2.42
2023-03-13T09:11:26.477Z,2.97
2023-03-13T09:13:53.284Z,2.92
2023-03-13T09:16:23.136Z,2.67
2023-03-13T09:18:50.790Z,2.70
2023-03-13T09:21:25.576Z,2.10
2023-03-13T09:23:52.830Z,2.70
2023-03-13T09:26:22.940Z,2.53
2023-03-13T09:28:51.189Z,1.95
2023-03-13T09:31:23.835Z,2.70
2023-03-13T09:33:51.788Z,1.73
2023-03-13T09:36:22.119Z,2.17
2023-03-13T09:38:53.335Z,1.85
2023-03-13T09:41:31.295Z,1.95
2023-03-13T09:44:18.964Z,1.77
2023-03-13T09:47:00.417Z,1.23
2023-03-13T09:49:54.439Z,1.42
2023-03-13T09:52:26.422Z,1.30
2023-03-13T09:54:59.369Z,1.60
2023-03-13T09:57:40.618Z,1.42
2023-03-13T10:00:24.057Z,1.40
2023-03-13T10:02:58.197Z,1.60
2023-03-13T10:05:28.040Z,1.20
2023-03-13T10:08:16.008Z,1.30
2023-03-13T10:11:01.111Z,1.35
2023-03-13T10:13:51.506Z,1.40
2023-03-13T10:16:24.441Z,1.20
2023-03-13T10:18:58.238Z,1.40
2023-03-13T10:21:34.567Z,1.40
2023-03-13T10:24:19.381Z,1.20
2023-03-13T10:26:46.007Z,1.42
2023-03-13T10:29:27.851Z,1.30
2023-03-13T10:32:08.942Z,1.00
2023-03-13T10:35:05.571Z,1.45
2023-03-13T10:37:42.755Z,1.35
2023-03-13T10:40:15.387Z,1.17
2023-03-13T10:42:45.958Z,1.50
2023-03-13T10:45:19.400Z,1.30
2023-03-13T10:47:46.315Z,1.40
2023-03-13T10:50:22.898Z,1.42
2023-03-13T10:52:50.732Z,1.30
2023-03-13T10:55:25.119Z,1.63
2023-03-13T10:58:03.617Z,1.67
2023-03-13T11:00:34.868Z,1.40
2023-03-13T11:03:05.704Z,1.30
2023-03-13T11:05:37.974Z,1.20
2023-03-13T11:08:16.534Z,1.42
2023-03-13T11:10:58.097Z,1.30
2023-03-13T11:13:50.701Z,1.42
2023-03-13T11:16:21.291Z,1.25
2023-03-13T11:24:04.571Z,1.42
2023-03-13T11:26:38.982Z,1.25
2023-03-13T11:29:31.475Z,1.13
2023-03-13T11:32:02.853Z,1.02
2023-03-13T11:34:42.664Z,1.02
2023-03-13T11:37:14.994Z,1.10
2023-03-13T11:39:47.240Z,1.40
2023-03-13T11:42:35.117Z,0.93
2023-03-13T11:45:21.649Z,1.20
2023-03-13T11:47:58.996Z,1.05
2023-03-13T11:50:48.974Z,1.30
2023-03-13T11:53:50.440Z,1.15
2023-03-13T11:56:23.085Z,1.00
2023-03-13T11:59:02.805Z,1.00
2023-03-13T12:01:46.595Z,0.70
2023-03-13T12:04:22.207Z,1.40
2023-03-13T12:07:19.152Z,1.10
2023-03-13T12:10:00.451Z,0.90
2023-03-13T12:12:42.984Z,1.20
2023-03-13T12:15:26.798Z,0.82
2023-03-13T12:18:41.763Z,0.80
2023-03-13T12:21:30.638Z,0.90
2023-03-13T12:24:06.457Z,0.80
2023-03-13T12:26:45.401Z,0.80
2023-03-13T12:29:38.532Z,0.90
2023-03-13T12:32:11.039Z,0.60
2023-03-13T12:35:00.330Z,0.70
2023-03-13T12:37:48.667Z,0.88
2023-03-13T12:41:03.585Z,0.70
2023-03-13T12:43:35.163Z,0.80
2023-03-13T12:46:01.735Z,0.80
2023-03-13T12:48:42.613Z,0.88
2023-03-13T12:51:44.175Z,0.70
2023-03-13T12:54:32.047Z,0.80
2023-03-13T12:57:40.145Z,0.85
2023-03-13T13:00:16.576Z,0.70
2023-03-13T13:02:43.440Z,0.60
2023-03-13T13:05:22.131Z,0.63
2023-03-13T13:07:56.483Z,0.52
2023-03-13T13:10:27.714Z,0.70
2023-03-13T13:13:15.706Z,0.80
2023-03-13T13:16:07.028Z,0.80
2023-03-13T13:18:34.620Z,0.70
2023-03-13T13:21:07.107Z,0.70
2023-03-13T13:23:38.442Z,0.70
2023-03-13T13:26:26.890Z,0.77
2023-03-13T13:28:54.491Z,0.90
2023-03-13T13:31:57.136Z,0.80
2023-03-13T13:34:34.651Z,0.60
2023-03-13T13:37:02.685Z,0.60
2023-03-13T13:39:32.133Z,0.60
2023-03-13T13:41:58.841Z,0.70
2023-03-13T13:44:28.379Z,0.60
2023-03-13T13:46:57.024Z,0.80
2023-03-13T13:49:30.767Z,0.98
2023-03-13T13:52:03.821Z,0.80
2023-03-13T13:54:45.607Z,0.82
2023-03-13T13:57:17.979Z,0.80
2023-03-13T13:59:48.284Z,0.90
2023-03-13T14:02:21.900Z,0.50
2023-03-13T14:04:54.209Z,0.70
2023-03-13T14:07:37.643Z,0.70
2023-03-13T14:10:32.250Z,0.70
2023-03-13T14:13:01.108Z,0.50
2023-03-13T14:15:30.507Z,1.00
2023-03-13T14:18:12.151Z,0.70
2023-03-13T14:21:03.025Z,0.73
2023-03-13T14:23:42.424Z,0.80
2023-03-13T14:26:30.333Z,0.80
2023-03-13T14:29:00.218Z,1.10
2023-03-13T14:31:31.135Z,0.70
2023-03-13T14:33:59.890Z,0.73
2023-03-13T14:36:27.586Z,0.95
2023-03-13T14:38:59.488Z,0.57
2023-03-13T14:41:42.782Z,0.80
2023-03-13T14:44:25.677Z,0.90
2023-03-13T14:46:58.807Z,0.80
2023-03-13T14:49:29.615Z,0.98
2023-03-13T14:52:26.820Z,0.70
2023-03-13T14:55:05.802Z,0.90
2023-03-13T14:57:36.254Z,1.05
2023-03-13T15:02:49.134Z,1.10
2023-03-13T15:05:32.908Z,1.40
2023-03-13T15:07:59.661Z,1.10
2023-03-13T15:10:32.693Z,1.00
2023-03-13T15:12:59.612Z,1.52
2023-03-13T15:15:26.381Z,1.10
2023-03-13T15:17:52.893Z,1.27
2023-03-13T15:20:20.769Z,1.02
2023-03-13T15:22:47.668Z,0.90
2023-03-13T15:25:20.205Z,1.02
2023-03-13T15:27:47.835Z,1.02
2023-03-13T15:30:19.502Z,0.90
2023-03-13T15:32:47.066Z,1.00
2023-03-13T15:35:29.646Z,0.95
2023-03-13T15:37:58.622Z,1.05
2023-03-13T15:40:25.851Z,1.08
2023-03-13T15:42:53.540Z,1.00
2023-03-13T15:45:20.802Z,1.17
2023-03-13T15:47:48.977Z,0.80
2023-03-13T15:50:18.470Z,1.10
2023-03-13T15:52:45.017Z,0.90
2023-03-13T15:55:12.790Z,1.10
2023-03-13T15:57:44.224Z,1.05
2023-03-13T16:00:17.928Z,1.02
2023-03-13T16:02:44.576Z,1.10
2023-03-13T16:05:11.642Z,1.42
2023-03-13T16:07:38.196Z,1.17
2023-03-13T16:10:12.639Z,1.00
2023-03-13T16:12:39.134Z,1.10
2023-03-13T16:15:06.278Z,1.30
2023-03-13T16:17:32.845Z,1.17
2023-03-13T16:19:59.333Z,1.30
2023-03-13T16:22:25.973Z,1.10
2023-03-13T16:24:52.618Z,1.10
2023-03-13T16:27:21.104Z,1.20
2023-03-13T16:29:47.758Z,1.63
2023-03-13T16:32:18.704Z,1.20
2023-03-13T16:34:45.307Z,1.27
2023-03-13T16:37:13.410Z,1.20
2023-03-13T16:39:40.472Z,1.08
2023-03-13T16:42:07.880Z,1.23
2023-03-13T16:44:34.468Z,1.38
2023-03-13T16:47:06.014Z,1.23
2023-03-13T16:49:32.997Z,1.60
2023-03-13T16:51:59.594Z,1.40
2023-03-13T16:54:26.195Z,1.58
2023-03-13T16:56:52.735Z,1.50
2023-03-13T16:59:19.689Z,1.60
2023-03-13T17:01:47.419Z,1.80
2023-03-13T17:04:14.302Z,1.45
2023-03-13T17:06:44.546Z,1.95
2023-03-13T17:09:14.155Z,1.90
2023-03-13T17:11:40.722Z,2.03
2023-03-13T17:14:08.013Z,1.75
2023-03-13T17:16:36.916Z,1.92
2023-03-13T17:19:05.384Z,1.90
2023-03-13T17:21:33.161Z,1.88
2023-03-13T17:24:02.963Z,2.25
2023-03-13T17:26:33.488Z,1.95
2023-03-13T17:29:00.560Z,1.98
2023-03-13T17:31:29.312Z,2.05
2023-03-13T17:33:56.604Z,2.20
2023-03-13T17:36:27.914Z,2.22
2023-03-13T17:38:57.615Z,2.40
2023-03-13T17:41:29.607Z,2.22
2023-03-13T17:43:56.562Z,2.53
2023-03-13T17:46:42.413Z,2.60
2023-03-13T17:49:11.952Z,1.98
2023-03-13T17:51:41.476Z,2.47
2023-03-13T17:54:09.243Z,2.22
2023-03-13T17:56:39.134Z,2.67
2023-03-13T17:59:18.088Z,2.30
2023-03-13T18:01:45.340Z,2.15
2023-03-13T18:04:11.994Z,2.80
2023-03-13T18:06:43.084Z,2.75
2023-03-13T18:09:20.854Z,2.80
2023-03-13T18:11:49.195Z,2.70
2023-03-13T18:14:15.759Z,2.50
2023-03-13T18:16:47.971Z,2.42
2023-03-13T18:19:19.975Z,3.20
2023-03-13T18:21:49.933Z,2.83
2023-03-13T18:24:19.600Z,2.85
2023-03-13T18:26:47.775Z,3.10
2023-03-13T18:29:26.749Z,3.10
2023-03-13T18:31:55.458Z,2.60
2023-03-13T18:34:23.477Z,3.20
2023-03-13T18:36:50.449Z,3.30
2023-03-13T18:39:18.071Z,2.78
2023-03-13T18:41:45.422Z,2.80
2023-03-13T18:44:16.212Z,3.05
2023-03-13T18:46:43.892Z,2.80
2023-03-13T18:49:21.332Z,2.70
2023-03-13T18:51:49.560Z,2.80
2023-03-13T18:54:16.371Z,2.70
2023-03-13T18:56:44.449Z,3.05
2023-03-13T18:59:13.915Z,3.45
2023-03-13T19:01:40.655Z,2.88
2023-03-13T19:04:07.498Z,2.90
2023-03-13T19:06:36.705Z,3.15
2023-03-13T19:09:31.695Z,3.03
2023-03-13T19:11:57.665Z,2.88
2023-03-13T19:14:24.436Z,3.38
2023-03-13T19:16:55.347Z,3.90
2023-03-13T19:19:23.654Z,3.45
2023-03-13T19:21:52.343Z,3.33
2023-03-13T19:24:19.188Z,3.00
2023-03-13T19:26:49.525Z,3.70
2023-03-13T19:29:18.638Z,3.80
2023-03-13T19:31:45.408Z,3.80
2023-03-13T19:34:12.050Z,4.30
2023-03-13T19:36:44.969Z,4.65
2023-03-13T19:39:17.230Z,4.72
2023-03-13T19:41:43.894Z,5.00
2023-03-13T19:44:11.207Z,4.63
2023-03-13T19:46:43.216Z,3.50
2023-03-13T19:49:18.780Z,2.97
2023-03-13T19:51:45.647Z,2.65
2023-03-13T19:54:12.953Z,2.42
2023-03-13T19:56:41.522Z,1.67
2023-03-13T19:59:14.925Z,1.75
2023-03-13T20:01:41.615Z,1.92
2023-03-13T20:04:08.228Z,1.42
2023-03-13T20:06:35.880Z,1.30
2023-03-13T20:09:09.146Z,1.30
2023-03-13T20:11:36.407Z,1.13
2023-03-13T20:14:03.135Z,1.45
2023-03-13T20:16:34.955Z,1.30
2023-03-13T20:19:01.999Z,1.30
2023-03-13T20:21:30.308Z,1.25
2023-03-13T20:23:58.017Z,1.60
2023-03-13T20:26:26.226Z,1.45
2023-03-13T20:28:53.317Z,1.23
2023-03-13T20:31:26.081Z,1.50
2023-03-13T20:33:52.756Z,1.00
2023-03-13T20:36:20.606Z,1.02
2023-03-13T20:38:47.610Z,0.90
2023-03-13T20:41:16.317Z,1.02
2023-03-13T20:43:43.229Z,0.88
2023-03-13T20:46:10.005Z,0.80
2023-03-13T20:48:39.570Z,1.10
2023-03-13T20:51:08.340Z,1.13
2023-03-13T20:53:39.416Z,1.33
2023-03-13T20:56:07.533Z,1.13
2023-03-13T20:58:35.164Z,1.40
2023-03-13T21:01:02.599Z,0.80
2023-03-13T21:03:29.340Z,0.90
2023-03-13T21:05:55.885Z,1.23
2023-03-13T21:08:23.143Z,0.90
2023-03-13T21:10:49.954Z,0.93
2023-03-13T21:13:16.545Z,0.98
2023-03-13T21:15:43.168Z,1.70
2023-03-13T21:18:09.981Z,0.80
2023-03-13T21:20:37.568Z,1.15
2023-03-13T21:23:04.132Z,1.35
2023-03-13T21:25:31.034Z,1.08
2023-03-13T21:27:57.728Z,1.02
2023-03-13T21:30:24.633Z,0.80
2023-03-13T21:32:52.495Z,1.10
2023-03-13T21:35:19.440Z,1.00
2023-03-13T21:37:46.086Z,0.82
2023-03-13T21:40:13.282Z,1.15
2023-03-13T21:42:40.220Z,1.13
2023-03-13T21:45:08.011Z,0.80
2023-03-13T21:47:38.120Z,0.75
2023-03-13T21:50:08.060Z,0.85
2023-03-13T21:52:40.720Z,0.63
2023-03-13T21:55:10.225Z,0.82
2023-03-13T21:57:36.861Z,0.73
2023-03-13T22:00:08.229Z,0.90
2023-03-13T22:02:36.210Z,0.85
2023-03-13T22:05:04.370Z,0.70
2023-03-13T22:07:31.116Z,0.90
2023-03-13T22:09:58.462Z,0.98
2023-03-13T22:12:25.747Z,1.00
2023-03-13T22:14:53.654Z,0.80
2023-03-13T22:17:21.020Z,0.80
2023-03-13T22:19:47.919Z,0.80
2023-03-13T22:22:15.549Z,0.90
2023-03-13T22:24:42.406Z,0.60
2023-03-13T22:27:12.857Z,0.65
2023-03-13T22:29:39.678Z,0.80
2023-03-13T22:32:06.352Z,0.77
2023-03-13T22:34:33.110Z,0.88
2023-03-13T22:36:59.799Z,0.60
2023-03-13T22:39:26.420Z,0.80
2023-03-13T22:41:52.986Z,0.68
2023-03-13T22:44:19.660Z,0.60
2023-03-13T22:46:46.262Z,0.90
2023-03-13T22:49:12.775Z,0.68
2023-03-13T22:51:39.437Z,0.77
2023-03-13T22:54:06.061Z,1.02
2023-03-13T22:56:32.576Z,1.00
2023-03-13T22:58:59.252Z,0.80
2023-03-13T23:01:26.626Z,0.75
2023-03-13T23:03:53.388Z,0.70
2023-03-13T23:06:22.873Z,0.93
2023-03-13T23:08:49.648Z,0.75
2023-03-13T23:11:16.524Z,0.68
2023-03-13T23:13:43.153Z,0.55
2023-03-13T23:16:11.565Z,0.95
2023-03-13T23:18:39.332Z,0.60
2023-03-13T23:21:11.330Z,0.70
2023-03-13T23:23:38.289Z,0.85
2023-03-13T23:26:08.714Z,0.70
2023-03-13T23:28:36.986Z,0.98
2023-03-13T23:31:17.503Z,0.80
2023-03-13T23:33:44.913Z,0.68
2023-03-13T23:36:14.552Z,0.73
2023-03-13T23:38:41.722Z,0.90
2023-03-13T23:41:10.660Z,0.70
2023-03-13T23:43:37.491Z,0.82
2023-03-13T23:46:05.275Z,0.60
2023-03-13T23:48:32.253Z,0.60
2023-03-13T23:50:58.780Z,0.68
2023-03-13T23:53:25.486Z,0.57
2023-03-13T23:55:59.016Z,0.63
2023-03-13T23:58:25.696Z,0.68
